81.5°F
Current conditions from King Hill
Updated every 5 minutes
 
  Monday September 1, 2014

Station Historical Data
Daily Summary for December 21, 2011 Units:  Both    English   Metric
« Previous Day
Next Day »
Daily Weekly Monthly Yearly Custom
  High: Low: Average:
Temperature: 45.1 °F /  7.3 °C 21.8 °F /  -5.7 °C 35.9 °F /  2.2 °C
Dew Point: 43.8 °F /  6.6 °C 12.5 °F /  -10.8 °C 31.6 °F /  -0.2 °C
Humidity: 95% 59% 85%
Wind Speed: 10.0mph /  16.1km/h - 5.2mph /  8.4km/h
Wind Gust: 20.0mph /  32.2km/h - -
Wind- - SSW
Pressure: 30.08 in /  1018.5 hPa 29.53 in /  999.9 hPa -
Precipitation: 0.00 in /  0 mm    
Historical Graphs
 
 
Tabular Data for December 21, 2011
Time Temperature Dew Point Pressure Wind Wind Speed Wind Gust Humidity Daily Rainfall
00:04 21.8 °F /  -5.7 °C 13.8 °F /  -10.1 °C 30.08in /  1018.5hPa SSW 3.0mph /  4.8km/h 7.0mph /  11.3km/h 71% 0.00in /  0mm
00:09 22.1 °F /  -5.5 °C 13.8 °F /  -10.1 °C 30.07in /  1018.2hPa SW 3.0mph /  4.8km/h 7.0mph /  11.3km/h 70% 0.00in /  0mm
00:14 22.3 °F /  -5.4 °C 14.0 °F /  -10 °C 30.07in /  1018.2hPa SSW 3.0mph /  4.8km/h 7.0mph /  11.3km/h 70% 0.00in /  0mm
00:19 22.4 °F /  -5.3 °C 14.1 °F /  -9.9 °C 30.06in /  1017.8hPa SW 3.0mph /  4.8km/h 7.0mph /  11.3km/h 70% 0.00in /  0mm
00:24 22.3 °F /  -5.4 °C 13.7 °F /  -10.2 °C 30.06in /  1017.8hPa SW 3.0mph /  4.8km/h 7.0mph /  11.3km/h 69% 0.00in /  0mm
00:29 22.6 °F /  -5.2 °C 14.0 °F /  -10 °C 30.05in /  1017.5hPa SSW 2.0mph /  3.2km/h 7.0mph /  11.3km/h 69% 0.00in /  0mm
00:34 22.7 °F /  -5.2 °C 14.1 °F /  -9.9 °C 30.05in /  1017.5hPa SSW 2.0mph /  3.2km/h 7.0mph /  11.3km/h 69% 0.00in /  0mm
00:39 22.8 °F /  -5.1 °C 13.8 °F /  -10.1 °C 30.05in /  1017.5hPa SSW 2.0mph /  3.2km/h 5.0mph /  8km/h 68% 0.00in /  0mm
00:49 22.8 °F /  -5.1 °C 13.8 °F /  -10.1 °C 30.05in /  1017.5hPa SSW 4.0mph /  6.4km/h 7.0mph /  11.3km/h 68% 0.00in /  0mm
00:54 23.0 °F /  -5 °C 14.0 °F /  -10 °C 30.05in /  1017.5hPa SSW 1.0mph /  1.6km/h 7.0mph /  11.3km/h 68% 0.00in /  0mm
00:59 23.0 °F /  -5 °C 13.7 °F /  -10.2 °C 30.05in /  1017.5hPa SSW 2.0mph /  3.2km/h 7.0mph /  11.3km/h 67% 0.00in /  0mm
01:04 23.1 °F /  -4.9 °C 13.8 °F /  -10.1 °C 30.05in /  1017.5hPa Calm   5.0mph /  8km/h 67% 0.00in /  0mm
01:09 23.2 °F /  -4.9 °C 13.5 °F /  -10.3 °C 30.05in /  1017.5hPa SSW 3.0mph /  4.8km/h 6.0mph /  9.7km/h 66% 0.00in /  0mm
01:14 23.5 °F /  -4.7 °C 13.8 °F /  -10.1 °C 30.04in /  1017.2hPa SSW 2.0mph /  3.2km/h 6.0mph /  9.7km/h 66% 0.00in /  0mm
01:19 23.6 °F /  -4.7 °C 13.9 °F /  -10.1 °C 30.04in /  1017.2hPa SSW 2.0mph /  3.2km/h 6.0mph /  9.7km/h 66% 0.00in /  0mm
01:24 23.7 °F /  -4.6 °C 13.7 °F /  -10.2 °C 30.04in /  1017.2hPa SSW 5.0mph /  8km/h 7.0mph /  11.3km/h 65% 0.00in /  0mm
01:29 23.8 °F /  -4.6 °C 13.8 °F /  -10.1 °C 30.04in /  1017.2hPa SSW 3.0mph /  4.8km/h 7.0mph /  11.3km/h 65% 0.00in /  0mm
01:34 24.0 °F /  -4.4 °C 13.6 °F /  -10.2 °C 30.04in /  1017.2hPa SSW 4.0mph /  6.4km/h 11.0mph /  17.7km/h 64% 0.00in /  0mm
01:39 24.2 °F /  -4.3 °C 13.8 °F /  -10.1 °C 30.03in /  1016.8hPa SSW 4.0mph /  6.4km/h 11.0mph /  17.7km/h 64% 0.00in /  0mm
01:44 24.3 °F /  -4.3 °C 13.9 °F /  -10.1 °C 30.03in /  1016.8hPa SSW 2.0mph /  3.2km/h 8.0mph /  12.9km/h 64% 0.00in /  0mm
01:49 24.3 °F /  -4.3 °C 13.5 °F /  -10.3 °C 30.03in /  1016.8hPa SSW 3.0mph /  4.8km/h 9.0mph /  14.5km/h 63% 0.00in /  0mm
01:54 24.3 °F /  -4.3 °C 13.5 °F /  -10.3 °C 30.02in /  1016.5hPa SSW 1.0mph /  1.6km/h 9.0mph /  14.5km/h 63% 0.00in /  0mm
01:59 24.3 °F /  -4.3 °C 13.5 °F /  -10.3 °C 30.02in /  1016.5hPa SSW 4.0mph /  6.4km/h 8.0mph /  12.9km/h 63% 0.00in /  0mm
02:04 24.3 °F /  -4.3 °C 13.2 °F /  -10.4 °C 30.02in /  1016.5hPa SSW 3.0mph /  4.8km/h 8.0mph /  12.9km/h 62% 0.00in /  0mm
02:09 24.3 °F /  -4.3 °C 13.2 °F /  -10.4 °C 30.03in /  1016.8hPa South 2.0mph /  3.2km/h 7.0mph /  11.3km/h 62% 0.00in /  0mm
02:14 24.3 °F /  -4.3 °C 13.2 °F /  -10.4 °C 30.03in /  1016.8hPa South 3.0mph /  4.8km/h 6.0mph /  9.7km/h 62% 0.00in /  0mm
02:19 24.2 °F /  -4.3 °C 13.1 °F /  -10.5 °C 30.03in /  1016.8hPa SSW 3.0mph /  4.8km/h 7.0mph /  11.3km/h 62% 0.00in /  0mm
02:24 24.1 °F /  -4.4 °C 13.0 °F /  -10.6 °C 30.03in /  1016.8hPa SSW 4.0mph /  6.4km/h 9.0mph /  14.5km/h 62% 0.00in /  0mm
02:29 23.9 °F /  -4.5 °C 13.1 °F /  -10.5 °C 30.03in /  1016.8hPa South 1.0mph /  1.6km/h 9.0mph /  14.5km/h 63% 0.00in /  0mm
02:34 23.9 °F /  -4.5 °C 12.8 °F /  -10.7 °C 30.03in /  1016.8hPa SSW 2.0mph /  3.2km/h 7.0mph /  11.3km/h 62% 0.00in /  0mm
02:39 23.9 °F /  -4.5 °C 12.8 °F /  -10.7 °C 30.03in /  1016.8hPa SSW 3.0mph /  4.8km/h 7.0mph /  11.3km/h 62% 0.00in /  0mm
02:44 23.9 °F /  -4.5 °C 12.8 °F /  -10.7 °C 30.03in /  1016.8hPa SSW 3.0mph /  4.8km/h 7.0mph /  11.3km/h 62% 0.00in /  0mm
02:49 24.1 °F /  -4.4 °C 12.6 °F /  -10.8 °C 30.02in /  1016.5hPa SSW 4.0mph /  6.4km/h 7.0mph /  11.3km/h 61% 0.00in /  0mm
02:54 24.4 °F /  -4.2 °C 12.5 °F /  -10.8 °C 30.02in /  1016.5hPa SSW 5.0mph /  8km/h 8.0mph /  12.9km/h 60% 0.00in /  0mm
02:59 24.7 °F /  -4.1 °C 12.8 °F /  -10.7 °C 30.02in /  1016.5hPa SSW 4.0mph /  6.4km/h 8.0mph /  12.9km/h 60% 0.00in /  0mm
03:04 25.3 °F /  -3.7 °C 13.0 °F /  -10.6 °C 30.02in /  1016.5hPa SSW 3.0mph /  4.8km/h 11.0mph /  17.7km/h 59% 0.00in /  0mm
03:09 26.1 °F /  -3.3 °C 13.7 °F /  -10.2 °C 30.01in /  1016.1hPa SSW 5.0mph /  8km/h 11.0mph /  17.7km/h 59% 0.00in /  0mm
03:14 26.5 °F /  -3.1 °C 14.1 °F /  -9.9 °C 30.01in /  1016.1hPa SSW 7.0mph /  11.3km/h 10.0mph /  16.1km/h 59% 0.00in /  0mm
03:19 26.7 °F /  -2.9 °C 14.3 °F /  -9.8 °C 30.01in /  1016.1hPa SSW 6.0mph /  9.7km/h 12.0mph /  19.3km/h 59% 0.00in /  0mm
03:24 27.1 °F /  -2.7 °C 15.1 °F /  -9.4 °C 30.01in /  1016.1hPa SSW 6.0mph /  9.7km/h 12.0mph /  19.3km/h 60% 0.00in /  0mm
03:29 27.4 °F /  -2.6 °C 15.3 °F /  -9.3 °C 30.00in /  1015.8hPa SSW 5.0mph /  8km/h 15.0mph /  24.1km/h 60% 0.00in /  0mm
03:34 27.7 °F /  -2.4 °C 16.0 °F /  -8.9 °C 30.00in /  1015.8hPa SSW 7.0mph /  11.3km/h 15.0mph /  24.1km/h 61% 0.00in /  0mm
03:39 27.9 °F /  -2.3 °C 16.2 °F /  -8.8 °C 30.00in /  1015.8hPa SSW 6.0mph /  9.7km/h 15.0mph /  24.1km/h 61% 0.00in /  0mm
03:49 28.7 °F /  -1.8 °C 16.9 °F /  -8.4 °C 30.00in /  1015.8hPa SSW 6.0mph /  9.7km/h 16.0mph /  25.7km/h 61% 0.00in /  0mm
03:54 28.8 °F /  -1.8 °C 17.0 °F /  -8.3 °C 29.99in /  1015.5hPa SSW 6.0mph /  9.7km/h 16.0mph /  25.7km/h 61% 0.00in /  0mm
03:59 28.9 °F /  -1.7 °C 17.1 °F /  -8.3 °C 29.99in /  1015.5hPa South 5.0mph /  8km/h 17.0mph /  27.4km/h 61% 0.00in /  0mm
04:04 29.0 °F /  -1.7 °C 16.9 °F /  -8.4 °C 29.99in /  1015.5hPa South 6.0mph /  9.7km/h 17.0mph /  27.4km/h 60% 0.00in /  0mm
04:09 29.2 °F /  -1.6 °C 17.0 °F /  -8.3 °C 29.99in /  1015.5hPa SSW 7.0mph /  11.3km/h 18.0mph /  29km/h 60% 0.00in /  0mm
04:14 29.3 °F /  -1.5 °C 17.1 °F /  -8.3 °C 29.99in /  1015.5hPa SSW 6.0mph /  9.7km/h 18.0mph /  29km/h 60% 0.00in /  0mm
04:19 29.3 °F /  -1.5 °C 17.1 °F /  -8.3 °C 29.99in /  1015.5hPa SSW 6.0mph /  9.7km/h 14.0mph /  22.5km/h 60% 0.00in /  0mm
04:24 29.3 °F /  -1.5 °C 17.5 °F /  -8.1 °C 29.99in /  1015.5hPa SSW 7.0mph /  11.3km/h 13.0mph /  20.9km/h 61% 0.00in /  0mm
04:29 29.4 °F /  -1.4 °C 17.6 °F /  -8 °C 30.00in /  1015.8hPa SSW 7.0mph /  11.3km/h 13.0mph /  20.9km/h 61% 0.00in /  0mm
04:34 29.5 °F /  -1.4 °C 18.1 °F /  -7.7 °C 29.99in /  1015.5hPa SSW 7.0mph /  11.3km/h 13.0mph /  20.9km/h 62% 0.00in /  0mm
04:39 29.7 °F /  -1.3 °C 18.6 °F /  -7.4 °C 29.99in /  1015.5hPa SSW 5.0mph /  8km/h 14.0mph /  22.5km/h 63% 0.00in /  0mm
04:44 29.9 °F /  -1.2 °C 19.2 °F /  -7.1 °C 29.99in /  1015.5hPa SSW 6.0mph /  9.7km/h 18.0mph /  29km/h 64% 0.00in /  0mm
04:49 30.0 °F /  -1.1 °C 20.0 °F /  -6.7 °C 29.99in /  1015.5hPa SSW 5.0mph /  8km/h 18.0mph /  29km/h 66% 0.00in /  0mm
04:54 30.1 °F /  -1.1 °C 20.8 °F /  -6.2 °C 29.98in /  1015.1hPa SSW 7.0mph /  11.3km/h 16.0mph /  25.7km/h 68% 0.00in /  0mm
04:59 30.2 °F /  -1 °C 21.3 °F /  -5.9 °C 29.98in /  1015.1hPa SSW 10.0mph /  16.1km/h 16.0mph /  25.7km/h 69% 0.00in /  0mm
05:04 30.3 °F /  -0.9 °C 21.7 °F /  -5.7 °C 29.98in /  1015.1hPa SSW 8.0mph /  12.9km/h 18.0mph /  29km/h 70% 0.00in /  0mm
05:09 30.3 °F /  -0.9 °C 22.0 °F /  -5.6 °C 29.98in /  1015.1hPa SSW 7.0mph /  11.3km/h 18.0mph /  29km/h 71% 0.00in /  0mm
05:14 30.4 °F /  -0.9 °C 22.8 °F /  -5.1 °C 29.98in /  1015.1hPa SSW 7.0mph /  11.3km/h 20.0mph /  32.2km/h 73% 0.00in /  0mm
05:19 30.4 °F /  -0.9 °C 22.8 °F /  -5.1 °C 29.97in /  1014.8hPa South 6.0mph /  9.7km/h 20.0mph /  32.2km/h 73% 0.00in /  0mm
05:24 30.2 °F /  -1 °C 22.9 °F /  -5.1 °C 29.97in /  1014.8hPa SSW 5.0mph /  8km/h 16.0mph /  25.7km/h 74% 0.00in /  0mm
05:34 30.4 °F /  -0.9 °C 23.4 °F /  -4.8 °C 29.97in /  1014.8hPa SSW 6.0mph /  9.7km/h 14.0mph /  22.5km/h 75% 0.00in /  0mm
05:44 30.6 °F /  -0.8 °C 23.9 °F /  -4.5 °C 29.97in /  1014.8hPa SSW 6.0mph /  9.7km/h 16.0mph /  25.7km/h 76% 0.00in /  0mm
05:49 30.7 °F /  -0.7 °C 24.3 °F /  -4.3 °C 29.97in /  1014.8hPa SSW 5.0mph /  8km/h 13.0mph /  20.9km/h 77% 0.00in /  0mm
05:54 30.9 °F /  -0.6 °C 24.9 °F /  -3.9 °C 29.97in /  1014.8hPa SSW 6.0mph /  9.7km/h 14.0mph /  22.5km/h 78% 0.00in /  0mm
05:59 31.1 °F /  -0.5 °C 25.0 °F /  -3.9 °C 29.97in /  1014.8hPa SSW 6.0mph /  9.7km/h 14.0mph /  22.5km/h 78% 0.00in /  0mm
06:04 31.2 °F /  -0.4 °C 25.5 °F /  -3.6 °C 29.97in /  1014.8hPa SSW 8.0mph /  12.9km/h 15.0mph /  24.1km/h 79% 0.00in /  0mm
06:09 31.4 °F /  -0.3 °C 25.9 °F /  -3.4 °C 29.97in /  1014.8hPa SSW 10.0mph /  16.1km/h 17.0mph /  27.4km/h 80% 0.00in /  0mm
06:14 31.5 °F /  -0.3 °C 26.3 °F /  -3.2 °C 29.97in /  1014.8hPa SSW 9.0mph /  14.5km/h 18.0mph /  29km/h 81% 0.00in /  0mm
06:19 31.6 °F /  -0.2 °C 26.7 °F /  -2.9 °C 29.97in /  1014.8hPa SSW 7.0mph /  11.3km/h 18.0mph /  29km/h 82% 0.00in /  0mm
06:24 31.7 °F /  -0.2 °C 26.8 °F /  -2.9 °C 29.97in /  1014.8hPa SSW 8.0mph /  12.9km/h 16.0mph /  25.7km/h 82% 0.00in /  0mm
06:29 31.7 °F /  -0.2 °C 26.8 °F /  -2.9 °C 29.97in /  1014.8hPa SW 7.0mph /  11.3km/h 17.0mph /  27.4km/h 82% 0.00in /  0mm
06:34 31.8 °F /  -0.1 °C 27.2 °F /  -2.7 °C 29.97in /  1014.8hPa SSW 8.0mph /  12.9km/h 18.0mph /  29km/h 83% 0.00in /  0mm
06:39 31.9 °F /  -0.1 °C 27.3 °F /  -2.6 °C 29.97in /  1014.8hPa SSW 7.0mph /  11.3km/h 18.0mph /  29km/h 83% 0.00in /  0mm
06:44 32.0 °F /  0 °C 27.4 °F /  -2.6 °C 29.97in /  1014.8hPa SSW 6.0mph /  9.7km/h 14.0mph /  22.5km/h 83% 0.00in /  0mm
06:49 32.1 °F /  0.1 °C 27.5 °F /  -2.5 °C 29.96in /  1014.4hPa SSW 7.0mph /  11.3km/h 17.0mph /  27.4km/h 83% 0.00in /  0mm
06:54 32.2 °F /  0.1 °C 27.9 °F /  -2.3 °C 29.97in /  1014.8hPa SSW 7.0mph /  11.3km/h 17.0mph /  27.4km/h 84% 0.00in /  0mm
06:59 32.3 °F /  0.2 °C 28.0 °F /  -2.2 °C 29.97in /  1014.8hPa SW 9.0mph /  14.5km/h 18.0mph /  29km/h 84% 0.00in /  0mm
07:04 32.4 °F /  0.2 °C 28.1 °F /  -2.2 °C 29.97in /  1014.8hPa SW 6.0mph /  9.7km/h 18.0mph /  29km/h 84% 0.00in /  0mm
07:09 32.5 °F /  0.3 °C 28.2 °F /  -2.1 °C 29.96in /  1014.4hPa SSW 8.0mph /  12.9km/h 18.0mph /  29km/h 84% 0.00in /  0mm
07:14 32.5 °F /  0.3 °C 28.2 °F /  -2.1 °C 29.96in /  1014.4hPa SSW 7.0mph /  11.3km/h 13.0mph /  20.9km/h 84% 0.00in /  0mm
07:19 32.6 °F /  0.3 °C 28.3 °F /  -2.1 °C 29.96in /  1014.4hPa SW 8.0mph /  12.9km/h 14.0mph /  22.5km/h 84% 0.00in /  0mm
07:24 32.6 °F /  0.3 °C 28.3 °F /  -2.1 °C 29.95in /  1014.1hPa SSW 8.0mph /  12.9km/h 15.0mph /  24.1km/h 84% 0.00in /  0mm
07:29 32.7 °F /  0.4 °C 28.4 °F /  -2 °C 29.95in /  1014.1hPa SW 7.0mph /  11.3km/h 15.0mph /  24.1km/h 84% 0.00in /  0mm
07:34 32.8 °F /  0.4 °C 28.5 °F /  -1.9 °C 29.95in /  1014.1hPa SSW 5.0mph /  8km/h 12.0mph /  19.3km/h 84% 0.00in /  0mm
07:39 32.8 °F /  0.4 °C 28.8 °F /  -1.8 °C 29.95in /  1014.1hPa SSW 8.0mph /  12.9km/h 15.0mph /  24.1km/h 85% 0.00in /  0mm
07:44 32.9 °F /  0.5 °C 28.9 °F /  -1.7 °C 29.95in /  1014.1hPa SW 6.0mph /  9.7km/h 15.0mph /  24.1km/h 85% 0.00in /  0mm
07:49 33.0 °F /  0.6 °C 29.0 °F /  -1.7 °C 29.95in /  1014.1hPa SW 5.0mph /  8km/h 14.0mph /  22.5km/h 85% 0.00in /  0mm
07:54 33.1 °F /  0.6 °C 29.1 °F /  -1.6 °C 29.95in /  1014.1hPa SSW 5.0mph /  8km/h 14.0mph /  22.5km/h 85% 0.00in /  0mm
07:59 33.2 °F /  0.7 °C 29.2 °F /  -1.6 °C 29.95in /  1014.1hPa SSW 6.0mph /  9.7km/h 12.0mph /  19.3km/h 85% 0.00in /  0mm
08:04 33.3 °F /  0.7 °C 29.3 °F /  -1.5 °C 29.95in /  1014.1hPa SSW 7.0mph /  11.3km/h 14.0mph /  22.5km/h 85% 0.00in /  0mm
08:09 33.4 °F /  0.8 °C 29.7 °F /  -1.3 °C 29.95in /  1014.1hPa SSW 4.0mph /  6.4km/h 14.0mph /  22.5km/h 86% 0.00in /  0mm
08:14 33.4 °F /  0.8 °C 29.7 °F /  -1.3 °C 29.95in /  1014.1hPa SSW 6.0mph /  9.7km/h 14.0mph /  22.5km/h 86% 0.00in /  0mm
08:19 33.4 °F /  0.8 °C 30.0 °F /  -1.1 °C 29.95in /  1014.1hPa SSW 6.0mph /  9.7km/h 14.0mph /  22.5km/h 87% 0.00in /  0mm
08:24 33.5 °F /  0.8 °C 30.0 °F /  -1.1 °C 29.95in /  1014.1hPa SSW 7.0mph /  11.3km/h 20.0mph /  32.2km/h 87% 0.00in /  0mm
08:29 33.5 °F /  0.8 °C 30.0 °F /  -1.1 °C 29.94in /  1013.8hPa SSW 5.0mph /  8km/h 20.0mph /  32.2km/h 87% 0.00in /  0mm
08:34 33.6 °F /  0.9 °C 30.1 °F /  -1.1 °C 29.94in /  1013.8hPa SSW 8.0mph /  12.9km/h 14.0mph /  22.5km/h 87% 0.00in /  0mm
08:39 33.7 °F /  0.9 °C 30.5 °F /  -0.8 °C 29.93in /  1013.4hPa SSW 6.0mph /  9.7km/h 14.0mph /  22.5km/h 88% 0.00in /  0mm
08:44 33.8 °F /  1 °C 30.6 °F /  -0.8 °C 29.93in /  1013.4hPa SSW 6.0mph /  9.7km/h 14.0mph /  22.5km/h 88% 0.00in /  0mm
08:49 33.8 °F /  1 °C 30.6 °F /  -0.8 °C 29.93in /  1013.4hPa SSW 6.0mph /  9.7km/h 11.0mph /  17.7km/h 88% 0.00in /  0mm
08:55 33.8 °F /  1 °C 30.6 °F /  -0.8 °C 29.93in /  1013.4hPa SSW 7.0mph /  11.3km/h 13.0mph /  20.9km/h 88% 0.00in /  0mm
09:04 34.1 °F /  1.2 °C 31.2 °F /  -0.4 °C 29.93in /  1013.4hPa SW 5.0mph /  8km/h 14.0mph /  22.5km/h 89% 0.00in /  0mm
09:09 34.2 °F /  1.2 °C 31.3 °F /  -0.4 °C 29.93in /  1013.4hPa SSW 8.0mph /  12.9km/h 15.0mph /  24.1km/h 89% 0.00in /  0mm
09:14 34.4 °F /  1.3 °C 31.5 °F /  -0.3 °C 29.92in /  1013.1hPa SSW 5.0mph /  8km/h 15.0mph /  24.1km/h 89% 0.00in /  0mm
09:19 34.4 °F /  1.3 °C 31.8 °F /  -0.1 °C 29.92in /  1013.1hPa SSW 5.0mph /  8km/h 15.0mph /  24.1km/h 90% 0.00in /  0mm
09:24 34.4 °F /  1.3 °C 31.8 °F /  -0.1 °C 29.92in /  1013.1hPa SSW 5.0mph /  8km/h 14.0mph /  22.5km/h 90% 0.00in /  0mm
09:29 34.4 °F /  1.3 °C 31.8 °F /  -0.1 °C 29.92in /  1013.1hPa SSW 6.0mph /  9.7km/h 16.0mph /  25.7km/h 90% 0.00in /  0mm
09:34 34.5 °F /  1.4 °C 31.9 °F /  -0.1 °C 29.92in /  1013.1hPa SSW 6.0mph /  9.7km/h 16.0mph /  25.7km/h 90% 0.00in /  0mm
09:39 34.7 °F /  1.5 °C 32.1 °F /  0.1 °C 29.92in /  1013.1hPa SSW 7.0mph /  11.3km/h 14.0mph /  22.5km/h 90% 0.00in /  0mm
09:44 34.8 °F /  1.6 °C 32.2 °F /  0.1 °C 29.92in /  1013.1hPa SSW 6.0mph /  9.7km/h 15.0mph /  24.1km/h 90% 0.00in /  0mm
09:49 35.0 °F /  1.7 °C 32.4 °F /  0.2 °C 29.92in /  1013.1hPa SSW 8.0mph /  12.9km/h 15.0mph /  24.1km/h 90% 0.00in /  0mm
09:54 35.0 °F /  1.7 °C 32.6 °F /  0.3 °C 29.92in /  1013.1hPa SSW 7.0mph /  11.3km/h 15.0mph /  24.1km/h 91% 0.00in /  0mm
09:59 35.1 °F /  1.7 °C 32.7 °F /  0.4 °C 29.91in /  1012.8hPa SSW 8.0mph /  12.9km/h 16.0mph /  25.7km/h 91% 0.00in /  0mm
10:04 35.2 °F /  1.8 °C 32.8 °F /  0.4 °C 29.91in /  1012.8hPa SSW 6.0mph /  9.7km/h 16.0mph /  25.7km/h 91% 0.00in /  0mm
10:09 35.3 °F /  1.8 °C 32.9 °F /  0.5 °C 29.91in /  1012.8hPa South 8.0mph /  12.9km/h 16.0mph /  25.7km/h 91% 0.00in /  0mm
10:14 35.4 °F /  1.9 °C 33.0 °F /  0.6 °C 29.90in /  1012.4hPa SSW 7.0mph /  11.3km/h 14.0mph /  22.5km/h 91% 0.00in /  0mm
10:20 35.4 °F /  1.9 °C 33.0 °F /  0.6 °C 29.90in /  1012.4hPa South 6.0mph /  9.7km/h 14.0mph /  22.5km/h 91% 0.00in /  0mm
10:29 35.6 °F /  2 °C 33.2 °F /  0.7 °C 29.89in /  1012.1hPa SSW 6.0mph /  9.7km/h 13.0mph /  20.9km/h 91% 0.00in /  0mm
10:34 35.8 °F /  2.1 °C 33.4 °F /  0.8 °C 29.88in /  1011.7hPa South 8.0mph /  12.9km/h 14.0mph /  22.5km/h 91% 0.00in /  0mm
10:39 35.9 °F /  2.2 °C 33.5 °F /  0.8 °C 29.88in /  1011.7hPa SSW 6.0mph /  9.7km/h 14.0mph /  22.5km/h 91% 0.00in /  0mm
10:44 36.1 °F /  2.3 °C 33.7 °F /  0.9 °C 29.88in /  1011.7hPa SSW 6.0mph /  9.7km/h 12.0mph /  19.3km/h 91% 0.00in /  0mm
10:49 36.4 °F /  2.4 °C 34.0 °F /  1.1 °C 29.87in /  1011.4hPa SSW 6.0mph /  9.7km/h 17.0mph /  27.4km/h 91% 0.00in /  0mm
10:54 36.5 °F /  2.5 °C 34.1 °F /  1.2 °C 29.87in /  1011.4hPa SSW 7.0mph /  11.3km/h 17.0mph /  27.4km/h 91% 0.00in /  0mm
10:59 36.7 °F /  2.6 °C 34.3 °F /  1.3 °C 29.87in /  1011.4hPa SSW 6.0mph /  9.7km/h 12.0mph /  19.3km/h 91% 0.00in /  0mm
11:04 36.8 °F /  2.7 °C 34.4 °F /  1.3 °C 29.86in /  1011.1hPa SSW 6.0mph /  9.7km/h 14.0mph /  22.5km/h 91% 0.00in /  0mm
11:09 36.9 °F /  2.7 °C 34.5 °F /  1.4 °C 29.86in /  1011.1hPa SSW 6.0mph /  9.7km/h 14.0mph /  22.5km/h 91% 0.00in /  0mm
11:14 37.1 °F /  2.8 °C 34.4 °F /  1.3 °C 29.85in /  1010.7hPa SSW 6.0mph /  9.7km/h 14.0mph /  22.5km/h 90% 0.00in /  0mm
11:19 37.3 °F /  2.9 °C 34.6 °F /  1.4 °C 29.85in /  1010.7hPa SSW 6.0mph /  9.7km/h 13.0mph /  20.9km/h 90% 0.00in /  0mm
11:30 37.6 °F /  3.1 °C 34.9 °F /  1.6 °C 29.84in /  1010.4hPa SSW 8.0mph /  12.9km/h 20.0mph /  32.2km/h 90% 0.00in /  0mm
11:39 37.7 °F /  3.2 °C 35.0 °F /  1.7 °C 29.83in /  1010hPa SSW 8.0mph /  12.9km/h 15.0mph /  24.1km/h 90% 0.00in /  0mm
11:45 37.7 °F /  3.2 °C 35.0 °F /  1.7 °C 29.83in /  1010hPa SW 7.0mph /  11.3km/h 15.0mph /  24.1km/h 90% 0.00in /  0mm
11:54 37.7 °F /  3.2 °C 35.0 °F /  1.7 °C 29.82in /  1009.7hPa SSW 6.0mph /  9.7km/h 14.0mph /  22.5km/h 90% 0.00in /  0mm
11:59 37.8 °F /  3.2 °C 35.1 °F /  1.7 °C 29.81in /  1009.4hPa SSW 8.0mph /  12.9km/h 14.0mph /  22.5km/h 90% 0.00in /  0mm
12:04 37.8 °F /  3.2 °C 35.1 °F /  1.7 °C 29.80in /  1009hPa SSW 6.0mph /  9.7km/h 14.0mph /  22.5km/h 90% 0.00in /  0mm
12:09 37.8 °F /  3.2 °C 35.1 °F /  1.7 °C 29.80in /  1009hPa SSW 6.0mph /  9.7km/h 15.0mph /  24.1km/h 90% 0.00in /  0mm
12:14 37.8 °F /  3.2 °C 35.1 °F /  1.7 °C 29.80in /  1009hPa SSW 7.0mph /  11.3km/h 15.0mph /  24.1km/h 90% 0.00in /  0mm
12:24 38.0 °F /  3.3 °C 35.3 °F /  1.8 °C 29.79in /  1008.7hPa SSW 6.0mph /  9.7km/h 15.0mph /  24.1km/h 90% 0.00in /  0mm
12:30 38.0 °F /  3.3 °C 35.3 °F /  1.8 °C 29.79in /  1008.7hPa SSW 5.0mph /  8km/h 15.0mph /  24.1km/h 90% 0.00in /  0mm
12:39 37.9 °F /  3.3 °C 35.2 °F /  1.8 °C 29.79in /  1008.7hPa SSW 5.0mph /  8km/h 13.0mph /  20.9km/h 90% 0.00in /  0mm
12:44 37.9 °F /  3.3 °C 35.2 °F /  1.8 °C 29.78in /  1008.4hPa SSW 6.0mph /  9.7km/h 13.0mph /  20.9km/h 90% 0.00in /  0mm
12:54 38.1 °F /  3.4 °C 35.7 °F /  2.1 °C 29.78in /  1008.4hPa SSW 5.0mph /  8km/h 12.0mph /  19.3km/h 91% 0.00in /  0mm
12:59 38.2 °F /  3.4 °C 35.8 °F /  2.1 °C 29.78in /  1008.4hPa SSW 6.0mph /  9.7km/h 11.0mph /  17.7km/h 91% 0.00in /  0mm
13:04 38.2 °F /  3.4 °C 35.8 °F /  2.1 °C 29.78in /  1008.4hPa SSW 4.0mph /  6.4km/h 11.0mph /  17.7km/h 91% 0.00in /  0mm
13:09 38.2 °F /  3.4 °C 35.8 °F /  2.1 °C 29.77in /  1008hPa SSW 5.0mph /  8km/h 11.0mph /  17.7km/h 91% 0.00in /  0mm
13:14 38.3 °F /  3.5 °C 35.9 °F /  2.2 °C 29.77in /  1008hPa SSW 5.0mph /  8km/h 14.0mph /  22.5km/h 91% 0.00in /  0mm
13:19 38.3 °F /  3.5 °C 35.9 °F /  2.2 °C 29.76in /  1007.7hPa SSW 6.0mph /  9.7km/h 14.0mph /  22.5km/h 91% 0.00in /  0mm
13:29 38.1 °F /  3.4 °C 35.7 °F /  2.1 °C 29.76in /  1007.7hPa SSW 6.0mph /  9.7km/h 14.0mph /  22.5km/h 91% 0.00in /  0mm
13:34 38.1 °F /  3.4 °C 35.7 °F /  2.1 °C 29.75in /  1007.3hPa SSW 5.0mph /  8km/h 14.0mph /  22.5km/h 91% 0.00in /  0mm
13:39 38.2 °F /  3.4 °C 35.8 °F /  2.1 °C 29.75in /  1007.3hPa SSW 6.0mph /  9.7km/h 11.0mph /  17.7km/h 91% 0.00in /  0mm
13:44 38.3 °F /  3.5 °C 36.2 °F /  2.3 °C 29.74in /  1007hPa SSW 6.0mph /  9.7km/h 13.0mph /  20.9km/h 92% 0.00in /  0mm
13:49 38.4 °F /  3.6 °C 36.3 °F /  2.4 °C 29.74in /  1007hPa SSW 5.0mph /  8km/h 13.0mph /  20.9km/h 92% 0.00in /  0mm
13:54 38.5 °F /  3.6 °C 36.4 °F /  2.4 °C 29.73in /  1006.7hPa SSW 6.0mph /  9.7km/h 12.0mph /  19.3km/h 92% 0.00in /  0mm
13:59 38.6 °F /  3.7 °C 36.5 °F /  2.5 °C 29.73in /  1006.7hPa SSW 5.0mph /  8km/h 14.0mph /  22.5km/h 92% 0.00in /  0mm
14:04 38.7 °F /  3.7 °C 36.6 °F /  2.6 °C 29.72in /  1006.3hPa SSW 7.0mph /  11.3km/h 14.0mph /  22.5km/h 92% 0.00in /  0mm
14:09 38.9 °F /  3.8 °C 36.8 °F /  2.7 °C 29.72in /  1006.3hPa SSW 5.0mph /  8km/h 14.0mph /  22.5km/h 92% 0.00in /  0mm
14:14 39.0 °F /  3.9 °C 36.9 °F /  2.7 °C 29.72in /  1006.3hPa SSW 5.0mph /  8km/h 14.0mph /  22.5km/h 92% 0.00in /  0mm
14:19 38.9 °F /  3.8 °C 36.8 °F /  2.7 °C 29.72in /  1006.3hPa SSW 5.0mph /  8km/h 13.0mph /  20.9km/h 92% 0.00in /  0mm
14:24 38.9 °F /  3.8 °C 36.8 °F /  2.7 °C 29.72in /  1006.3hPa SSW 4.0mph /  6.4km/h 12.0mph /  19.3km/h 92% 0.00in /  0mm
14:29 38.8 °F /  3.8 °C 36.7 °F /  2.6 °C 29.72in /  1006.3hPa SSW 4.0mph /  6.4km/h 12.0mph /  19.3km/h 92% 0.00in /  0mm
14:34 38.8 °F /  3.8 °C 36.7 °F /  2.6 °C 29.72in /  1006.3hPa SSW 3.0mph /  4.8km/h 12.0mph /  19.3km/h 92% 0.00in /  0mm
14:39 38.7 °F /  3.7 °C 36.6 °F /  2.6 °C 29.72in /  1006.3hPa SSW 2.0mph /  3.2km/h 8.0mph /  12.9km/h 92% 0.00in /  0mm
14:44 38.7 °F /  3.7 °C 36.6 °F /  2.6 °C 29.72in /  1006.3hPa SSW 5.0mph /  8km/h 12.0mph /  19.3km/h 92% 0.00in /  0mm
14:49 38.7 °F /  3.7 °C 36.6 °F /  2.6 °C 29.72in /  1006.3hPa SSW 5.0mph /  8km/h 12.0mph /  19.3km/h 92% 0.00in /  0mm
14:54 38.7 °F /  3.7 °C 36.6 °F /  2.6 °C 29.72in /  1006.3hPa SSW 6.0mph /  9.7km/h 12.0mph /  19.3km/h 92% 0.00in /  0mm
14:59 38.6 °F /  3.7 °C 36.5 °F /  2.5 °C 29.71in /  1006hPa SSW 5.0mph /  8km/h 12.0mph /  19.3km/h 92% 0.00in /  0mm
15:04 38.7 °F /  3.7 °C 36.6 °F /  2.6 °C 29.71in /  1006hPa SSW 5.0mph /  8km/h 10.0mph /  16.1km/h 92% 0.00in /  0mm
15:09 38.8 °F /  3.8 °C 36.7 °F /  2.6 °C 29.71in /  1006hPa SSW 4.0mph /  6.4km/h 10.0mph /  16.1km/h 92% 0.00in /  0mm
15:14 38.8 °F /  3.8 °C 36.7 °F /  2.6 °C 29.70in /  1005.6hPa SSW 5.0mph /  8km/h 11.0mph /  17.7km/h 92% 0.00in /  0mm
15:19 39.0 °F /  3.9 °C 36.9 °F /  2.7 °C 29.70in /  1005.6hPa SSW 8.0mph /  12.9km/h 12.0mph /  19.3km/h 92% 0.00in /  0mm
15:24 39.1 °F /  3.9 °C 37.2 °F /  2.9 °C 29.70in /  1005.6hPa SSW 6.0mph /  9.7km/h 12.0mph /  19.3km/h 93% 0.00in /  0mm
15:34 39.3 °F /  4.1 °C 37.4 °F /  3 °C 29.69in /  1005.3hPa SW 4.0mph /  6.4km/h 11.0mph /  17.7km/h 93% 0.00in /  0mm
15:39 39.3 °F /  4.1 °C 37.4 °F /  3 °C 29.69in /  1005.3hPa Calm   11.0mph /  17.7km/h 93% 0.00in /  0mm
15:44 39.3 °F /  4.1 °C 37.4 °F /  3 °C 29.68in /  1005hPa SSW 1.0mph /  1.6km/h 7.0mph /  11.3km/h 93% 0.00in /  0mm
15:49 39.4 °F /  4.1 °C 37.5 °F /  3.1 °C 29.68in /  1005hPa South 3.0mph /  4.8km/h 7.0mph /  11.3km/h 93% 0.00in /  0mm
15:54 39.5 °F /  4.2 °C 37.6 °F /  3.1 °C 29.67in /  1004.6hPa South 5.0mph /  8km/h 11.0mph /  17.7km/h 93% 0.00in /  0mm
15:59 39.9 °F /  4.4 °C 38.0 °F /  3.3 °C 29.67in /  1004.6hPa South 6.0mph /  9.7km/h 11.0mph /  17.7km/h 93% 0.00in /  0mm
16:04 40.1 °F /  4.5 °C 38.5 °F /  3.6 °C 29.67in /  1004.6hPa SSW 6.0mph /  9.7km/h 11.0mph /  17.7km/h 94% 0.00in /  0mm
16:09 40.3 °F /  4.6 °C 38.7 °F /  3.7 °C 29.67in /  1004.6hPa SSW 3.0mph /  4.8km/h 11.0mph /  17.7km/h 94% 0.00in /  0mm
16:14 40.4 °F /  4.7 °C 38.8 °F /  3.8 °C 29.67in /  1004.6hPa SSW 3.0mph /  4.8km/h 9.0mph /  14.5km/h 94% 0.00in /  0mm
16:19 40.6 °F /  4.8 °C 39.0 °F /  3.9 °C 29.67in /  1004.6hPa SSW 5.0mph /  8km/h 10.0mph /  16.1km/h 94% 0.00in /  0mm
16:24 40.8 °F /  4.9 °C 39.2 °F /  4 °C 29.66in /  1004.3hPa SSW 3.0mph /  4.8km/h 10.0mph /  16.1km/h 94% 0.00in /  0mm
16:29 40.9 °F /  4.9 °C 39.3 °F /  4.1 °C 29.66in /  1004.3hPa SSW 3.0mph /  4.8km/h 9.0mph /  14.5km/h 94% 0.00in /  0mm
16:34 41.0 °F /  5 °C 39.4 °F /  4.1 °C 29.66in /  1004.3hPa South 2.0mph /  3.2km/h 8.0mph /  12.9km/h 94% 0.00in /  0mm
16:39 40.9 °F /  4.9 °C 39.3 °F /  4.1 °C 29.66in /  1004.3hPa SSW 1.0mph /  1.6km/h 6.0mph /  9.7km/h 94% 0.00in /  0mm
16:44 40.9 °F /  4.9 °C 39.3 °F /  4.1 °C 29.66in /  1004.3hPa South 4.0mph /  6.4km/h 9.0mph /  14.5km/h 94% 0.00in /  0mm
16:49 40.9 °F /  4.9 °C 39.3 °F /  4.1 °C 29.65in /  1003.9hPa SSW 1.0mph /  1.6km/h 9.0mph /  14.5km/h 94% 0.00in /  0mm
16:54 41.0 °F /  5 °C 39.4 °F /  4.1 °C 29.65in /  1003.9hPa SSW 5.0mph /  8km/h 9.0mph /  14.5km/h 94% 0.00in /  0mm
16:59 41.2 °F /  5.1 °C 39.6 °F /  4.2 °C 29.64in /  1003.6hPa SSW 4.0mph /  6.4km/h 10.0mph /  16.1km/h 94% 0.00in /  0mm
17:04 41.3 °F /  5.2 °C 39.7 °F /  4.3 °C 29.64in /  1003.6hPa SSW 5.0mph /  8km/h 10.0mph /  16.1km/h 94% 0.00in /  0mm
17:09 41.5 °F /  5.3 °C 39.9 °F /  4.4 °C 29.64in /  1003.6hPa SSW 4.0mph /  6.4km/h 11.0mph /  17.7km/h 94% 0.00in /  0mm
17:14 41.5 °F /  5.3 °C 39.9 °F /  4.4 °C 29.63in /  1003.3hPa South 3.0mph /  4.8km/h 11.0mph /  17.7km/h 94% 0.00in /  0mm
17:19 41.6 °F /  5.3 °C 40.0 °F /  4.4 °C 29.63in /  1003.3hPa SSW 7.0mph /  11.3km/h 19.0mph /  30.6km/h 94% 0.00in /  0mm
17:24 41.7 °F /  5.4 °C 40.1 °F /  4.5 °C 29.63in /  1003.3hPa SSW 6.0mph /  9.7km/h 19.0mph /  30.6km/h 94% 0.00in /  0mm
17:29 41.8 °F /  5.4 °C 40.2 °F /  4.6 °C 29.63in /  1003.3hPa SSW 3.0mph /  4.8km/h 14.0mph /  22.5km/h 94% 0.00in /  0mm
17:34 41.9 °F /  5.5 °C 40.3 °F /  4.6 °C 29.62in /  1002.9hPa SSW 4.0mph /  6.4km/h 14.0mph /  22.5km/h 94% 0.00in /  0mm
17:39 42.1 °F /  5.6 °C 40.5 °F /  4.7 °C 29.61in /  1002.6hPa South 3.0mph /  4.8km/h 12.0mph /  19.3km/h 94% 0.00in /  0mm
17:44 42.2 °F /  5.7 °C 40.6 °F /  4.8 °C 29.61in /  1002.6hPa South 6.0mph /  9.7km/h 12.0mph /  19.3km/h 94% 0.00in /  0mm
17:49 42.4 °F /  5.8 °C 40.8 °F /  4.9 °C 29.60in /  1002.3hPa SSW 6.0mph /  9.7km/h 15.0mph /  24.1km/h 94% 0.00in /  0mm
17:54 42.5 °F /  5.8 °C 41.2 °F /  5.1 °C 29.59in /  1001.9hPa South 7.0mph /  11.3km/h 15.0mph /  24.1km/h 95% 0.00in /  0mm
17:59 42.7 °F /  5.9 °C 41.1 °F /  5.1 °C 29.59in /  1001.9hPa SSW 6.0mph /  9.7km/h 13.0mph /  20.9km/h 94% 0.00in /  0mm
18:04 42.8 °F /  6 °C 41.2 °F /  5.1 °C 29.59in /  1001.9hPa SSW 7.0mph /  11.3km/h 15.0mph /  24.1km/h 94% 0.00in /  0mm
18:09 42.9 °F /  6.1 °C 41.3 °F /  5.2 °C 29.59in /  1001.9hPa SSW 7.0mph /  11.3km/h 15.0mph /  24.1km/h 94% 0.00in /  0mm
18:14 43.0 °F /  6.1 °C 41.7 °F /  5.4 °C 29.59in /  1001.9hPa SSW 5.0mph /  8km/h 15.0mph /  24.1km/h 95% 0.00in /  0mm
18:19 43.0 °F /  6.1 °C 41.7 °F /  5.4 °C 29.58in /  1001.6hPa SSW 6.0mph /  9.7km/h 13.0mph /  20.9km/h 95% 0.00in /  0mm
18:24 42.9 °F /  6.1 °C 41.3 °F /  5.2 °C 29.58in /  1001.6hPa SSW 5.0mph /  8km/h 12.0mph /  19.3km/h 94% 0.00in /  0mm
18:29 42.9 °F /  6.1 °C 41.3 °F /  5.2 °C 29.59in /  1001.9hPa SW 5.0mph /  8km/h 11.0mph /  17.7km/h 94% 0.00in /  0mm
18:35 42.8 °F /  6 °C 41.2 °F /  5.1 °C 29.59in /  1001.9hPa South 3.0mph /  4.8km/h 11.0mph /  17.7km/h 94% 0.00in /  0mm
18:44 42.8 °F /  6 °C 41.2 °F /  5.1 °C 29.60in /  1002.3hPa SSW 5.0mph /  8km/h 8.0mph /  12.9km/h 94% 0.00in /  0mm
18:49 42.9 °F /  6.1 °C 41.3 °F /  5.2 °C 29.59in /  1001.9hPa SSW 5.0mph /  8km/h 10.0mph /  16.1km/h 94% 0.00in /  0mm
18:54 42.9 °F /  6.1 °C 41.3 °F /  5.2 °C 29.58in /  1001.6hPa SSW 4.0mph /  6.4km/h 11.0mph /  17.7km/h 94% 0.00in /  0mm
19:00 43.0 °F /  6.1 °C 41.4 °F /  5.2 °C 29.58in /  1001.6hPa SSW 7.0mph /  11.3km/h 14.0mph /  22.5km/h 94% 0.00in /  0mm
19:09 43.1 °F /  6.2 °C 41.5 °F /  5.3 °C 29.59in /  1001.9hPa SSW 7.0mph /  11.3km/h 14.0mph /  22.5km/h 94% 0.00in /  0mm
19:14 43.1 °F /  6.2 °C 41.5 °F /  5.3 °C 29.58in /  1001.6hPa SSW 5.0mph /  8km/h 11.0mph /  17.7km/h 94% 0.00in /  0mm
19:19 43.1 °F /  6.2 °C 41.5 °F /  5.3 °C 29.59in /  1001.9hPa SW 5.0mph /  8km/h 12.0mph /  19.3km/h 94% 0.00in /  0mm
19:24 43.1 °F /  6.2 °C 41.5 °F /  5.3 °C 29.59in /  1001.9hPa SW 4.0mph /  6.4km/h 12.0mph /  19.3km/h 94% 0.00in /  0mm
19:29 43.2 °F /  6.2 °C 41.6 °F /  5.3 °C 29.59in /  1001.9hPa SSW 7.0mph /  11.3km/h 13.0mph /  20.9km/h 94% 0.00in /  0mm
19:34 43.2 °F /  6.2 °C 41.6 °F /  5.3 °C 29.58in /  1001.6hPa SSW 5.0mph /  8km/h 13.0mph /  20.9km/h 94% 0.00in /  0mm
19:39 43.2 °F /  6.2 °C 41.6 °F /  5.3 °C 29.59in /  1001.9hPa SSW 2.0mph /  3.2km/h 13.0mph /  20.9km/h 94% 0.00in /  0mm
19:49 43.4 °F /  6.3 °C 41.8 °F /  5.4 °C 29.59in /  1001.9hPa SSW 4.0mph /  6.4km/h 10.0mph /  16.1km/h 94% 0.00in /  0mm
19:54 43.5 °F /  6.4 °C 41.9 °F /  5.5 °C 29.59in /  1001.9hPa SSW 7.0mph /  11.3km/h 14.0mph /  22.5km/h 94% 0.00in /  0mm
19:59 43.7 °F /  6.5 °C 42.1 °F /  5.6 °C 29.58in /  1001.6hPa SSW 6.0mph /  9.7km/h 14.0mph /  22.5km/h 94% 0.00in /  0mm
20:04 43.8 °F /  6.6 °C 42.2 °F /  5.7 °C 29.58in /  1001.6hPa SSW 4.0mph /  6.4km/h 12.0mph /  19.3km/h 94% 0.00in /  0mm
20:09 43.8 °F /  6.6 °C 42.2 °F /  5.7 °C 29.58in /  1001.6hPa SSW 3.0mph /  4.8km/h 10.0mph /  16.1km/h 94% 0.00in /  0mm
20:14 43.7 °F /  6.5 °C 42.1 °F /  5.6 °C 29.57in /  1001.2hPa SW 1.0mph /  1.6km/h 9.0mph /  14.5km/h 94% 0.00in /  0mm
20:19 43.8 °F /  6.6 °C 42.2 °F /  5.7 °C 29.57in /  1001.2hPa SW 3.0mph /  4.8km/h 9.0mph /  14.5km/h 94% 0.00in /  0mm
20:24 43.9 °F /  6.6 °C 42.6 °F /  5.9 °C 29.57in /  1001.2hPa SSW 2.0mph /  3.2km/h 9.0mph /  14.5km/h 95% 0.00in /  0mm
20:29 43.8 °F /  6.6 °C 42.2 °F /  5.7 °C 29.56in /  1000.9hPa SW 1.0mph /  1.6km/h 7.0mph /  11.3km/h 94% 0.00in /  0mm
20:34 43.8 °F /  6.6 °C 42.2 °F /  5.7 °C 29.56in /  1000.9hPa Calm   7.0mph /  11.3km/h 94% 0.00in /  0mm
20:39 43.8 °F /  6.6 °C 42.5 °F /  5.8 °C 29.56in /  1000.9hPa SSW 2.0mph /  3.2km/h 6.0mph /  9.7km/h 95% 0.00in /  0mm
20:44 43.8 °F /  6.6 °C 42.5 °F /  5.8 °C 29.56in /  1000.9hPa SW 1.0mph /  1.6km/h 6.0mph /  9.7km/h 95% 0.00in /  0mm
20:49 43.9 °F /  6.6 °C 42.6 °F /  5.9 °C 29.56in /  1000.9hPa SSW 1.0mph /  1.6km/h 6.0mph /  9.7km/h 95% 0.00in /  0mm
20:54 44.0 °F /  6.7 °C 42.7 °F /  5.9 °C 29.56in /  1000.9hPa South 3.0mph /  4.8km/h 7.0mph /  11.3km/h 95% 0.00in /  0mm
20:59 44.0 °F /  6.7 °C 42.4 °F /  5.8 °C 29.56in /  1000.9hPa SSW 5.0mph /  8km/h 8.0mph /  12.9km/h 94% 0.00in /  0mm
21:04 44.0 °F /  6.7 °C 42.4 °F /  5.8 °C 29.56in /  1000.9hPa SSW 2.0mph /  3.2km/h 8.0mph /  12.9km/h 94% 0.00in /  0mm
21:09 44.0 °F /  6.7 °C 42.7 °F /  5.9 °C 29.55in /  1000.6hPa SSW 3.0mph /  4.8km/h 9.0mph /  14.5km/h 95% 0.00in /  0mm
21:14 44.1 °F /  6.7 °C 42.8 °F /  6 °C 29.55in /  1000.6hPa SSW 4.0mph /  6.4km/h 17.0mph /  27.4km/h 95% 0.00in /  0mm
21:19 44.2 °F /  6.8 °C 42.9 °F /  6.1 °C 29.55in /  1000.6hPa SW 3.0mph /  4.8km/h 17.0mph /  27.4km/h 95% 0.00in /  0mm
21:24 44.2 °F /  6.8 °C 42.9 °F /  6.1 °C 29.56in /  1000.9hPa SW 6.0mph /  9.7km/h 15.0mph /  24.1km/h 95% 0.00in /  0mm
21:34 44.3 °F /  6.8 °C 43.0 °F /  6.1 °C 29.56in /  1000.9hPa SSW 4.0mph /  6.4km/h 10.0mph /  16.1km/h 95% 0.00in /  0mm
21:39 44.3 °F /  6.8 °C 43.0 °F /  6.1 °C 29.55in /  1000.6hPa SSW 3.0mph /  4.8km/h 12.0mph /  19.3km/h 95% 0.00in /  0mm
21:44 44.3 °F /  6.8 °C 43.0 °F /  6.1 °C 29.55in /  1000.6hPa SSW 5.0mph /  8km/h 13.0mph /  20.9km/h 95% 0.00in /  0mm
21:49 44.3 °F /  6.8 °C 43.0 °F /  6.1 °C 29.56in /  1000.9hPa SSW 4.0mph /  6.4km/h 13.0mph /  20.9km/h 95% 0.00in /  0mm
21:54 44.2 °F /  6.8 °C 42.9 °F /  6.1 °C 29.55in /  1000.6hPa SSW 5.0mph /  8km/h 14.0mph /  22.5km/h 95% 0.00in /  0mm
21:59 44.3 °F /  6.8 °C 43.0 °F /  6.1 °C 29.55in /  1000.6hPa SSW 4.0mph /  6.4km/h 14.0mph /  22.5km/h 95% 0.00in /  0mm
22:04 44.3 °F /  6.8 °C 43.0 °F /  6.1 °C 29.55in /  1000.6hPa SSW 5.0mph /  8km/h 12.0mph /  19.3km/h 95% 0.00in /  0mm
22:09 44.3 °F /  6.8 °C 43.0 °F /  6.1 °C 29.55in /  1000.6hPa SSW 6.0mph /  9.7km/h 14.0mph /  22.5km/h 95% 0.00in /  0mm
22:14 44.4 °F /  6.9 °C 43.1 °F /  6.2 °C 29.55in /  1000.6hPa SSW 5.0mph /  8km/h 14.0mph /  22.5km/h 95% 0.00in /  0mm
22:19 44.5 °F /  6.9 °C 43.2 °F /  6.2 °C 29.55in /  1000.6hPa SSW 6.0mph /  9.7km/h 14.0mph /  22.5km/h 95% 0.00in /  0mm
22:24 44.5 °F /  6.9 °C 43.2 °F /  6.2 °C 29.55in /  1000.6hPa SSW 8.0mph /  12.9km/h 14.0mph /  22.5km/h 95% 0.00in /  0mm
22:29 44.6 °F /  7 °C 43.3 °F /  6.3 °C 29.55in /  1000.6hPa SSW 6.0mph /  9.7km/h 14.0mph /  22.5km/h 95% 0.00in /  0mm
22:34 44.6 °F /  7 °C 43.3 °F /  6.3 °C 29.55in /  1000.6hPa SSW 6.0mph /  9.7km/h 14.0mph /  22.5km/h 95% 0.00in /  0mm
22:44 44.8 °F /  7.1 °C 43.5 °F /  6.4 °C 29.54in /  1000.2hPa SSW 8.0mph /  12.9km/h 16.0mph /  25.7km/h 95% 0.00in /  0mm
22:54 44.9 °F /  7.2 °C 43.6 °F /  6.4 °C 29.55in /  1000.6hPa SW 8.0mph /  12.9km/h 14.0mph /  22.5km/h 95% 0.00in /  0mm
22:59 45.0 °F /  7.2 °C 43.7 °F /  6.5 °C 29.55in /  1000.6hPa SW 9.0mph /  14.5km/h 15.0mph /  24.1km/h 95% 0.00in /  0mm
23:04 45.0 °F /  7.2 °C 43.7 °F /  6.5 °C 29.55in /  1000.6hPa SW 7.0mph /  11.3km/h 15.0mph /  24.1km/h 95% 0.00in /  0mm
23:09 45.0 °F /  7.2 °C 43.7 °F /  6.5 °C 29.55in /  1000.6hPa SW 7.0mph /  11.3km/h 15.0mph /  24.1km/h 95% 0.00in /  0mm
23:14 45.0 °F /  7.2 °C 43.7 °F /  6.5 °C 29.54in /  1000.2hPa SSW 6.0mph /  9.7km/h 16.0mph /  25.7km/h 95% 0.00in /  0mm
23:19 45.0 °F /  7.2 °C 43.7 °F /  6.5 °C 29.54in /  1000.2hPa SSW 8.0mph /  12.9km/h 16.0mph /  25.7km/h 95% 0.00in /  0mm
23:24 45.0 °F /  7.2 °C 43.7 °F /  6.5 °C 29.54in /  1000.2hPa SSW 7.0mph /  11.3km/h 16.0mph /  25.7km/h 95% 0.00in /  0mm
23:29 45.0 °F /  7.2 °C 43.7 °F /  6.5 °C 29.54in /  1000.2hPa SSW 8.0mph /  12.9km/h 14.0mph /  22.5km/h 95% 0.00in /  0mm
23:39 45.0 °F /  7.2 °C 43.7 °F /  6.5 °C 29.54in /  1000.2hPa SSW 7.0mph /  11.3km/h 15.0mph /  24.1km/h 95% 0.00in /  0mm
23:44 45.1 °F /  7.3 °C 43.8 °F /  6.6 °C 29.54in /  1000.2hPa SW 6.0mph /  9.7km/h 12.0mph /  19.3km/h 95% 0.00in /  0mm
23:49 45.1 °F /  7.3 °C 43.8 °F /  6.6 °C 29.53in /  999.9hPa SSW 6.0mph /  9.7km/h 15.0mph /  24.1km/h 95% 0.00in /  0mm
23:54 45.1 °F /  7.3 °C 43.8 °F /  6.6 °C 29.53in /  999.9hPa SSW 6.0mph /  9.7km/h 15.0mph /  24.1km/h 95% 0.00in /  0mm
23:59 45.1 °F /  7.3 °C 43.8 °F /  6.6 °C 29.53in /  999.9hPa SSW 6.0mph /  9.7km/h 12.0mph /  19.3km/h 95% 0.00in /  0mm
Westford Weather
Compliments of Weather Underground

 
 
Current Radar Loop:

Copyright © WestfordWeather.net 2007-2014. All rights reserved.